createdAt,value
2023-01-30T00:01:58.127Z,1.58
2023-01-30T00:04:25.797Z,2.10
2023-01-30T00:06:54.199Z,1.73
2023-01-30T00:09:21.830Z,1.83
2023-01-30T00:11:49.341Z,1.33
2023-01-30T00:14:17.122Z,1.63
2023-01-30T00:16:44.965Z,1.67
2023-01-30T00:19:13.936Z,1.63
2023-01-30T00:21:43.246Z,1.35
2023-01-30T00:24:11.135Z,1.30
2023-01-30T00:26:38.902Z,1.27
2023-01-30T00:29:06.592Z,1.92
2023-01-30T00:31:34.262Z,1.98
2023-01-30T00:34:02.058Z,1.85
2023-01-30T00:36:30.984Z,1.90
2023-01-30T00:38:59.259Z,1.90
2023-01-30T00:41:47.929Z,1.27
2023-01-30T00:44:36.679Z,1.13
2023-01-30T00:47:06.920Z,1.48
2023-01-30T00:49:34.578Z,1.23
2023-01-30T00:52:03.562Z,2.38
2023-01-30T00:54:31.254Z,2.03
2023-01-30T00:56:58.827Z,2.10
2023-01-30T00:59:26.411Z,2.15
2023-01-30T01:01:54.301Z,1.77
2023-01-30T01:04:22.799Z,2.28
2023-01-30T01:06:50.455Z,1.63
2023-01-30T01:09:19.749Z,1.95
2023-01-30T01:11:47.338Z,1.95
2023-01-30T01:14:14.977Z,2.27
2023-01-30T01:16:42.751Z,2.10
2023-01-30T01:19:10.376Z,2.03
2023-01-30T01:21:38.264Z,1.92
2023-01-30T01:24:06.094Z,2.05
2023-01-30T01:26:37.801Z,2.20
2023-01-30T01:29:05.501Z,2.10
2023-01-30T01:31:33.184Z,1.98
2023-01-30T01:34:01.054Z,2.53
2023-01-30T01:36:52.205Z,2.75
2023-01-30T01:39:16.360Z,2.90
2023-01-30T01:41:47.309Z,2.53
2023-01-30T01:44:17.047Z,2.50
2023-01-30T01:46:46.099Z,3.28
2023-01-30T01:49:16.397Z,2.92
2023-01-30T01:51:48.761Z,3.23
2023-01-30T01:54:17.908Z,2.42
2023-01-30T01:56:48.291Z,2.67
2023-01-30T01:59:20.851Z,2.90
2023-01-30T02:01:48.767Z,3.15
2023-01-30T02:04:36.635Z,2.73
2023-01-30T02:07:04.287Z,2.50
2023-01-30T02:09:31.788Z,3.20
2023-01-30T02:12:06.849Z,2.67
2023-01-30T02:14:34.689Z,2.67
2023-01-30T02:17:02.204Z,3.23
2023-01-30T02:19:33.684Z,2.72
2023-01-30T02:22:12.717Z,2.70
2023-01-30T02:24:53.094Z,2.90
2023-01-30T02:27:30.035Z,2.42
2023-01-30T02:30:10.125Z,2.73
2023-01-30T02:32:42.887Z,2.40
2023-01-30T02:35:20.255Z,2.42
2023-01-30T02:37:53.453Z,2.70
2023-01-30T02:40:31.104Z,3.13
2023-01-30T02:43:03.118Z,2.50
2023-01-30T02:45:33.777Z,2.92
2023-01-30T02:48:04.097Z,2.28
2023-01-30T02:50:35.875Z,2.47
2023-01-30T02:53:05.379Z,2.53
2023-01-30T02:55:33.135Z,2.47
2023-01-30T02:58:01.512Z,2.72
2023-01-30T03:00:36.017Z,2.50
2023-01-30T03:03:11.089Z,2.35
2023-01-30T03:05:51.799Z,3.28
2023-01-30T03:08:24.839Z,3.57
2023-01-30T03:10:55.864Z,2.58
2023-01-30T03:13:30.200Z,2.85
2023-01-30T03:16:01.145Z,2.70
2023-01-30T03:18:30.555Z,2.33
2023-01-30T03:20:58.253Z,2.53
2023-01-30T03:23:25.865Z,2.45
2023-01-30T03:25:58.724Z,2.40
2023-01-30T03:28:27.257Z,2.60
2023-01-30T03:30:55.074Z,3.20
2023-01-30T03:33:22.749Z,2.43
2023-01-30T03:35:52.691Z,3.10
2023-01-30T03:38:20.332Z,2.90
2023-01-30T03:40:48.073Z,2.85
2023-01-30T03:43:15.706Z,3.33
2023-01-30T03:45:43.532Z,2.43
2023-01-30T03:48:13.134Z,2.70
2023-01-30T03:50:40.861Z,2.42
2023-01-30T03:53:10.720Z,2.58
2023-01-30T03:55:39.191Z,3.70
2023-01-30T03:58:06.993Z,2.60
2023-01-30T04:00:34.670Z,2.88
2023-01-30T04:03:02.608Z,2.63
2023-01-30T04:05:30.157Z,2.70
2023-01-30T04:07:57.831Z,1.95
2023-01-30T04:10:27.074Z,1.97
2023-01-30T04:12:54.805Z,1.70
2023-01-30T04:15:22.529Z,1.80
2023-01-30T04:17:50.096Z,1.98
2023-01-30T04:20:18.142Z,1.50
2023-01-30T04:22:45.853Z,1.83
2023-01-30T04:25:16.998Z,1.40
2023-01-30T04:27:48.040Z,1.55
2023-01-30T04:30:16.082Z,1.50
2023-01-30T04:32:43.864Z,1.40
2023-01-30T04:35:12.196Z,1.40
2023-01-30T04:37:41.482Z,1.70
2023-01-30T04:40:09.536Z,1.17
2023-01-30T04:42:38.979Z,1.20
2023-01-30T04:45:08.675Z,1.02
2023-01-30T04:47:36.437Z,0.87
2023-01-30T04:50:05.497Z,0.90
2023-01-30T04:52:33.116Z,1.27
2023-01-30T04:55:00.898Z,1.02
2023-01-30T04:57:28.727Z,0.75
2023-01-30T04:59:56.383Z,1.33
2023-01-30T05:02:27.747Z,1.05
2023-01-30T05:04:55.409Z,1.13
2023-01-30T05:07:23.230Z,1.52
2023-01-30T05:09:50.816Z,0.95
2023-01-30T05:12:18.483Z,1.30
2023-01-30T05:14:46.855Z,1.30
2023-01-30T05:17:14.908Z,1.20
2023-01-30T05:19:43.918Z,2.28
2023-01-30T05:22:12.289Z,1.35
2023-01-30T05:24:40.748Z,1.70
2023-01-30T05:27:08.315Z,0.82
2023-01-30T05:29:35.881Z,0.82
2023-01-30T05:32:04.413Z,0.82
2023-01-30T05:34:32.025Z,0.85
2023-01-30T05:37:01.150Z,0.87
2023-01-30T05:39:28.697Z,0.90
2023-01-30T05:41:57.537Z,0.85
2023-01-30T05:44:25.185Z,0.95
2023-01-30T05:46:53.295Z,1.30
2023-01-30T05:49:21.094Z,1.10
2023-01-30T05:51:50.585Z,1.10
2023-01-30T05:54:21.122Z,1.45
2023-01-30T05:56:50.888Z,0.70
2023-01-30T05:59:19.427Z,0.90
2023-01-30T06:01:46.990Z,0.90
2023-01-30T06:04:14.700Z,1.00
2023-01-30T06:06:42.359Z,0.68
2023-01-30T06:09:11.448Z,1.05
2023-01-30T06:11:40.551Z,1.00
2023-01-30T06:14:08.289Z,0.97
2023-01-30T06:16:39.676Z,1.23
2023-01-30T06:19:07.285Z,0.80
2023-01-30T06:21:34.813Z,0.70
2023-01-30T06:24:02.529Z,0.90
2023-01-30T06:26:30.189Z,0.70
2023-01-30T06:28:59.119Z,0.80
2023-01-30T06:31:27.016Z,1.08
2023-01-30T06:33:54.791Z,1.25
2023-01-30T06:36:22.402Z,0.70
2023-01-30T06:38:50.100Z,0.83
2023-01-30T06:41:17.768Z,0.60
2023-01-30T06:43:45.303Z,0.60
2023-01-30T06:46:14.287Z,0.43
2023-01-30T06:48:42.003Z,0.70
2023-01-30T06:51:09.578Z,0.57
2023-01-30T06:53:37.173Z,0.52
2023-01-30T06:56:04.877Z,0.80
2023-01-30T06:58:32.388Z,0.90
2023-01-30T07:01:00.081Z,0.88
2023-01-30T07:03:29.081Z,0.67
2023-01-30T07:05:56.624Z,0.65
2023-01-30T07:08:24.503Z,0.88
2023-01-30T07:10:52.845Z,0.68
2023-01-30T07:13:26.451Z,0.50
2023-01-30T07:15:54.251Z,0.70
2023-01-30T07:18:21.821Z,0.65
2023-01-30T07:20:51.050Z,0.90
2023-01-30T07:23:19.135Z,0.93
2023-01-30T07:25:46.722Z,0.70
2023-01-30T07:28:18.500Z,0.60
2023-01-30T07:30:46.250Z,0.80
2023-01-30T07:33:13.971Z,0.65
2023-01-30T07:35:41.589Z,0.90
2023-01-30T07:38:11.994Z,0.60
2023-01-30T07:40:39.630Z,0.77
2023-01-30T07:43:07.925Z,1.05
2023-01-30T07:45:37.037Z,0.85
2023-01-30T07:48:04.884Z,1.00
2023-01-30T07:50:32.603Z,0.68
2023-01-30T07:53:00.593Z,0.97
2023-01-30T07:55:29.631Z,0.80
2023-01-30T07:57:57.340Z,0.95
2023-01-30T08:00:25.141Z,1.40
2023-01-30T08:02:52.943Z,1.02
2023-01-30T08:05:20.632Z,0.43
2023-01-30T08:07:48.529Z,1.23
2023-01-30T08:10:16.948Z,0.90
2023-01-30T08:12:46.252Z,1.17
2023-01-30T08:15:14.057Z,1.00
2023-01-30T08:17:41.615Z,0.93
2023-01-30T08:20:10.403Z,1.00
2023-01-30T08:22:38.130Z,0.98
2023-01-30T08:25:06.280Z,1.27
2023-01-30T08:27:33.860Z,0.50
2023-01-30T08:30:03.120Z,0.90
2023-01-30T08:32:30.692Z,0.70
2023-01-30T08:34:59.379Z,0.90
2023-01-30T08:37:28.199Z,0.93
2023-01-30T08:39:57.157Z,0.90
2023-01-30T08:42:24.736Z,1.73
2023-01-30T08:44:53.076Z,0.88
2023-01-30T08:47:23.322Z,0.75
2023-01-30T08:49:53.143Z,0.80
2023-01-30T08:52:20.885Z,1.05
2023-01-30T08:54:48.504Z,0.90
2023-01-30T08:57:16.500Z,0.80
2023-01-30T08:59:44.111Z,0.77
2023-01-30T09:02:12.756Z,1.13
2023-01-30T09:04:41.766Z,0.73
2023-01-30T09:07:09.591Z,0.50
2023-01-30T09:09:39.109Z,0.70
2023-01-30T09:12:06.887Z,0.52
2023-01-30T09:14:34.483Z,0.43
2023-01-30T09:17:02.025Z,1.10
2023-01-30T09:19:29.897Z,1.10
2023-01-30T09:21:58.997Z,0.98
2023-01-30T09:24:29.813Z,1.02
2023-01-30T09:26:59.003Z,0.77
2023-01-30T09:29:26.731Z,0.73
2023-01-30T09:31:56.647Z,0.80
2023-01-30T09:34:27.739Z,0.60
2023-01-30T09:36:55.409Z,0.60
2023-01-30T09:39:24.313Z,0.65
2023-01-30T09:42:01.357Z,0.77
2023-01-30T09:44:45.471Z,0.60
2023-01-30T09:47:14.323Z,1.05
2023-01-30T09:49:47.634Z,0.70
2023-01-30T09:52:20.584Z,0.90
2023-01-30T09:54:49.798Z,1.05
2023-01-30T09:57:21.126Z,0.70
2023-01-30T09:59:58.291Z,0.38
2023-01-30T10:02:32.648Z,0.88
2023-01-30T10:05:02.772Z,0.52
2023-01-30T10:07:34.576Z,1.08
2023-01-30T10:10:07.321Z,0.50
2023-01-30T10:12:40.291Z,0.80
2023-01-30T10:15:23.500Z,0.70
2023-01-30T10:17:57.985Z,1.40
2023-01-30T10:20:32.738Z,1.27
2023-01-30T10:23:05.753Z,0.67
2023-01-30T10:25:37.557Z,0.68
2023-01-30T10:28:07.406Z,0.65
2023-01-30T10:30:35.533Z,0.60
2023-01-30T10:33:05.557Z,0.90
2023-01-30T10:35:35.512Z,0.60
2023-01-30T10:38:07.943Z,0.43
2023-01-30T10:40:40.924Z,0.82
2023-01-30T10:43:14.885Z,0.80
2023-01-30T10:45:44.358Z,0.90
2023-01-30T10:48:19.799Z,0.80
2023-01-30T10:50:51.678Z,1.27
2023-01-30T10:53:23.955Z,0.30
2023-01-30T10:55:56.545Z,0.80
2023-01-30T10:58:29.082Z,0.80
2023-01-30T11:01:00.751Z,0.73
2023-01-30T11:03:31.687Z,0.70
2023-01-30T11:06:00.999Z,1.50
2023-01-30T11:08:29.712Z,0.70
2023-01-30T11:10:59.331Z,0.50
2023-01-30T11:13:30.469Z,0.73
2023-01-30T11:15:59.703Z,0.57
2023-01-30T11:19:18.392Z,0.73
2023-01-30T11:21:23.436Z,1.00
2023-01-30T11:23:53.171Z,1.75
2023-01-30T11:26:32.063Z,0.93
2023-01-30T11:29:16.369Z,0.90
2023-01-30T11:31:52.027Z,0.82
2023-01-30T11:34:21.008Z,0.55
2023-01-30T11:36:48.685Z,0.80
2023-01-30T11:39:24.640Z,0.70
2023-01-30T11:42:01.908Z,0.60
2023-01-30T11:44:35.205Z,0.73
2023-01-30T11:47:04.994Z,0.68
2023-01-30T11:49:49.607Z,0.73
2023-01-30T11:52:24.920Z,0.80
2023-01-30T11:54:53.699Z,0.93
2023-01-30T11:57:24.945Z,0.95
2023-01-30T11:59:57.758Z,1.35
2023-01-30T12:02:26.885Z,0.60
2023-01-30T12:04:56.555Z,0.80
2023-01-30T12:07:25.859Z,0.73
2023-01-30T12:09:54.459Z,0.68
2023-01-30T12:12:29.447Z,0.80
2023-01-30T12:15:02.634Z,0.73
2023-01-30T12:17:34.991Z,0.73
2023-01-30T12:20:04.769Z,1.40
2023-01-30T12:22:34.787Z,1.17
2023-01-30T12:25:03.511Z,0.80
2023-01-30T12:27:38.814Z,1.13
2023-01-30T12:30:17.441Z,1.00
2023-01-30T12:32:46.295Z,0.85
2023-01-30T12:35:16.761Z,0.82
2023-01-30T12:37:49.031Z,1.13
2023-01-30T12:40:24.690Z,1.13
2023-01-30T12:43:07.803Z,1.20
2023-01-30T12:45:36.484Z,1.02
2023-01-30T12:48:19.192Z,0.80
2023-01-30T12:50:58.887Z,0.90
2023-01-30T12:53:37.730Z,1.20
2023-01-30T12:56:22.116Z,1.17
2023-01-30T12:58:54.761Z,1.13
2023-01-30T13:01:29.349Z,1.15
2023-01-30T13:04:03.502Z,1.02
2023-01-30T13:09:41.024Z,1.37
2023-01-30T13:12:11.758Z,1.17
2023-01-30T13:14:43.806Z,0.77
2023-01-30T13:17:25.372Z,0.82
2023-01-30T13:19:57.717Z,0.63
2023-01-30T13:22:29.108Z,1.03
2023-01-30T13:25:01.583Z,0.65
2023-01-30T13:27:30.481Z,0.88
2023-01-30T13:30:00.305Z,0.82
2023-01-30T13:32:34.264Z,1.27
2023-01-30T13:35:02.107Z,0.63
2023-01-30T13:37:30.430Z,1.20
2023-01-30T13:39:59.760Z,1.00
2023-01-30T13:42:34.357Z,0.82
2023-01-30T13:45:05.449Z,1.77
2023-01-30T13:47:41.670Z,0.77
2023-01-30T13:50:20.200Z,1.15
2023-01-30T13:52:51.934Z,0.55
2023-01-30T13:55:26.835Z,0.93
2023-01-30T13:57:57.321Z,1.00
2023-01-30T14:00:35.978Z,1.30
2023-01-30T14:03:23.035Z,0.77
2023-01-30T14:06:14.705Z,0.82
2023-01-30T14:08:49.932Z,1.02
2023-01-30T14:11:31.910Z,1.00
2023-01-30T14:14:04.186Z,0.70
2023-01-30T14:16:43.548Z,1.10
2023-01-30T14:19:23.347Z,0.65
2023-01-30T14:21:57.842Z,0.70
2023-01-30T14:24:25.652Z,1.40
2023-01-30T14:27:22.850Z,0.67
2023-01-30T14:29:56.898Z,0.70
2023-01-30T14:32:45.501Z,1.10
2023-01-30T14:35:21.494Z,0.60
2023-01-30T14:37:54.011Z,0.60
2023-01-30T14:40:29.620Z,1.43
2023-01-30T14:43:13.019Z,0.75
2023-01-30T14:45:46.134Z,0.55
2023-01-30T14:48:29.053Z,0.70
2023-01-30T14:51:17.907Z,0.65
2023-01-30T14:53:50.394Z,1.10
2023-01-30T14:56:18.260Z,1.15
2023-01-30T14:58:53.059Z,0.60
2023-01-30T15:01:20.799Z,0.32
2023-01-30T15:03:49.652Z,1.42
2023-01-30T15:06:19.851Z,1.00
2023-01-30T15:08:48.092Z,0.98
2023-01-30T15:11:18.614Z,1.45
2023-01-30T15:14:01.001Z,1.10
2023-01-30T15:16:37.274Z,0.65
2023-01-30T15:19:15.542Z,1.10
2023-01-30T15:21:55.983Z,1.02
2023-01-30T15:24:33.865Z,0.65
2023-01-30T15:27:05.094Z,1.10
2023-01-30T15:29:53.080Z,1.05
2023-01-30T15:32:21.852Z,0.87
2023-01-30T15:34:54.541Z,1.23
2023-01-30T15:37:32.146Z,0.65
2023-01-30T15:40:18.428Z,0.80
2023-01-30T15:42:47.420Z,1.00
2023-01-30T15:45:20.334Z,1.17
2023-01-30T15:47:56.315Z,1.30
2023-01-30T15:50:24.544Z,0.40
2023-01-30T15:52:57.356Z,0.73
2023-01-30T15:55:27.799Z,0.50
2023-01-30T15:57:57.752Z,0.90
2023-01-30T16:00:27.572Z,1.70
2023-01-30T16:02:55.647Z,1.02
2023-01-30T16:05:25.342Z,0.95
2023-01-30T16:07:55.826Z,1.05
2023-01-30T16:10:27.170Z,0.60
2023-01-30T16:12:56.204Z,0.77
2023-01-30T16:15:27.598Z,1.08
2023-01-30T16:17:58.098Z,0.65
2023-01-30T16:20:25.884Z,0.60
2023-01-30T16:22:55.461Z,1.17
2023-01-30T16:25:23.888Z,0.60
2023-01-30T16:27:53.555Z,1.10
2023-01-30T16:30:25.684Z,0.60
2023-01-30T16:32:54.958Z,1.05
2023-01-30T16:35:31.277Z,0.70
2023-01-30T16:38:01.133Z,0.80
2023-01-30T16:40:30.938Z,0.70
2023-01-30T16:42:59.703Z,0.93
2023-01-30T16:45:44.815Z,1.15
2023-01-30T16:48:24.328Z,0.90
2023-01-30T16:51:05.522Z,0.82
2023-01-30T16:53:36.847Z,1.15
2023-01-30T16:56:05.721Z,1.23
2023-01-30T16:58:34.573Z,1.50
2023-01-30T17:01:03.336Z,0.90
2023-01-30T17:03:34.080Z,0.85
2023-01-30T17:06:05.041Z,0.70
2023-01-30T17:08:47.013Z,0.90
2023-01-30T17:11:29.513Z,1.13
2023-01-30T17:14:16.029Z,0.67
2023-01-30T17:16:46.212Z,0.90
2023-01-30T17:19:14.227Z,0.85
2023-01-30T17:21:45.753Z,0.80
2023-01-30T17:24:17.142Z,0.80
2023-01-30T17:26:46.179Z,1.10
2023-01-30T17:29:23.373Z,1.00
2023-01-30T17:32:02.037Z,0.80
2023-01-30T17:34:29.614Z,1.13
2023-01-30T17:36:57.177Z,0.95
2023-01-30T17:39:26.840Z,1.10
2023-01-30T17:41:56.190Z,0.85
2023-01-30T17:44:25.278Z,1.10
2023-01-30T17:46:54.759Z,1.20
2023-01-30T17:49:23.155Z,0.88
2023-01-30T17:51:51.476Z,1.00
2023-01-30T17:54:20.563Z,1.13
2023-01-30T17:56:53.258Z,1.17
2023-01-30T17:59:21.689Z,1.67
2023-01-30T18:01:50.522Z,0.82
2023-01-30T18:04:19.154Z,1.20
2023-01-30T18:06:48.188Z,1.52
2023-01-30T18:09:16.454Z,1.02
2023-01-30T18:11:44.139Z,1.58
2023-01-30T18:14:13.230Z,1.02
2023-01-30T18:16:41.274Z,1.53
2023-01-30T18:19:09.982Z,1.73
2023-01-30T18:21:40.042Z,1.15
2023-01-30T18:24:08.332Z,1.38
2023-01-30T18:26:36.235Z,1.67
2023-01-30T18:29:03.937Z,1.33
2023-01-30T18:31:33.901Z,1.20
2023-01-30T18:34:01.482Z,1.30
2023-01-30T18:36:29.108Z,1.00
2023-01-30T18:38:58.892Z,1.08
2023-01-30T18:41:26.861Z,0.70
2023-01-30T18:43:56.105Z,1.05
2023-01-30T18:46:23.796Z,0.73
2023-01-30T18:48:53.209Z,0.98
2023-01-30T18:51:22.593Z,1.05
2023-01-30T18:53:50.935Z,1.37
2023-01-30T18:56:19.428Z,0.85
2023-01-30T18:58:49.754Z,1.30
2023-01-30T19:01:18.641Z,0.90
2023-01-30T19:03:46.250Z,0.88
2023-01-30T19:06:17.770Z,1.10
2023-01-30T19:08:46.156Z,1.10
2023-01-30T19:11:34.516Z,1.00
2023-01-30T19:14:03.389Z,1.33
2023-01-30T19:16:32.051Z,1.00
2023-01-30T19:19:00.129Z,0.77
2023-01-30T19:21:29.701Z,1.63
2023-01-30T19:23:57.428Z,1.48
2023-01-30T19:26:26.040Z,1.40
2023-01-30T19:28:54.367Z,1.90
2023-01-30T19:31:26.269Z,2.40
2023-01-30T19:33:55.503Z,2.22
2023-01-30T19:36:24.051Z,3.20
2023-01-30T19:38:54.122Z,2.72
2023-01-30T19:41:23.079Z,2.97
2023-01-30T19:43:51.220Z,2.63
2023-01-30T19:46:19.399Z,2.72
2023-01-30T19:48:47.744Z,2.85
2023-01-30T19:51:16.283Z,1.70
2023-01-30T19:53:44.906Z,1.70
2023-01-30T19:56:14.336Z,1.90
2023-01-30T19:58:42.370Z,1.80
2023-01-30T20:01:10.628Z,1.50
2023-01-30T20:03:38.347Z,1.80
2023-01-30T20:06:12.140Z,1.83
2023-01-30T20:08:40.798Z,1.73
2023-01-30T20:11:09.392Z,2.15
2023-01-30T20:13:39.253Z,2.22
2023-01-30T20:16:07.300Z,1.83
2023-01-30T20:18:38.703Z,2.10
2023-01-30T20:21:07.842Z,2.00
2023-01-30T20:23:35.855Z,2.45
2023-01-30T20:26:06.446Z,2.22
2023-01-30T20:28:34.645Z,2.25
2023-01-30T20:31:08.061Z,1.50
2023-01-30T20:33:35.954Z,2.60
2023-01-30T20:36:04.223Z,2.00
2023-01-30T20:38:35.727Z,1.73
2023-01-30T20:41:04.215Z,1.60
2023-01-30T20:43:32.639Z,2.25
2023-01-30T20:46:06.155Z,1.80
2023-01-30T20:48:33.785Z,2.10
2023-01-30T20:51:05.463Z,1.85
2023-01-30T20:53:33.265Z,1.60
2023-01-30T20:56:01.065Z,1.35
2023-01-30T20:58:29.444Z,1.83
2023-01-30T21:00:58.451Z,1.67
2023-01-30T21:03:27.372Z,1.50
2023-01-30T21:05:58.412Z,1.40
2023-01-30T21:08:26.565Z,4.05
2023-01-30T21:10:54.433Z,3.50
2023-01-30T21:13:22.480Z,2.78
2023-01-30T21:15:50.108Z,2.78
2023-01-30T21:18:17.718Z,2.85
2023-01-30T21:20:50.780Z,2.83
2023-01-30T21:23:18.340Z,2.63
2023-01-30T21:25:45.967Z,2.65
2023-01-30T21:28:13.631Z,2.55
2023-01-30T21:30:42.605Z,2.55
2023-01-30T21:33:10.254Z,2.67
2023-01-30T21:35:38.013Z,2.37
2023-01-30T21:38:25.772Z,2.40
2023-01-30T21:41:11.937Z,2.38
2023-01-30T21:43:40.100Z,3.10
2023-01-30T21:46:07.989Z,2.28
2023-01-30T21:48:35.616Z,2.60
2023-01-30T21:51:12.086Z,2.70
2023-01-30T21:53:41.202Z,2.38
2023-01-30T21:56:08.777Z,2.28
2023-01-30T21:58:36.547Z,2.33
2023-01-30T22:01:05.113Z,2.77
2023-01-30T22:03:32.850Z,2.03
2023-01-30T22:06:01.404Z,2.00
2023-01-30T22:08:29.274Z,2.30
2023-01-30T22:11:08.547Z,2.15
2023-01-30T22:13:36.712Z,1.97
2023-01-30T22:16:05.190Z,2.50
2023-01-30T22:18:33.331Z,2.50
2023-01-30T22:21:04.746Z,1.90
2023-01-30T22:23:33.737Z,2.40
2023-01-30T22:26:01.824Z,2.50
2023-01-30T22:28:32.738Z,2.08
2023-01-30T22:31:04.144Z,1.92
2023-01-30T22:33:31.837Z,2.58
2023-01-30T22:35:59.823Z,2.38
2023-01-30T22:38:27.571Z,2.30
2023-01-30T22:41:02.265Z,2.50
2023-01-30T22:43:31.981Z,3.33
2023-01-30T22:46:01.126Z,2.40
2023-01-30T22:48:29.344Z,2.20
2023-01-30T22:51:00.708Z,2.63
2023-01-30T22:53:28.235Z,2.88
2023-01-30T22:55:56.317Z,2.63
2023-01-30T22:58:25.056Z,3.00
2023-01-30T23:00:54.274Z,3.55
2023-01-30T23:03:22.074Z,3.53
2023-01-30T23:05:57.272Z,3.13
2023-01-30T23:08:25.773Z,4.05
2023-01-30T23:10:54.593Z,3.60
2023-01-30T23:13:22.142Z,3.13
2023-01-30T23:15:49.702Z,4.17
2023-01-30T23:18:36.589Z,4.00
2023-01-30T23:21:04.284Z,3.38
2023-01-30T23:23:31.973Z,3.55
2023-01-30T23:26:02.246Z,3.45
2023-01-30T23:28:32.690Z,4.03
2023-01-30T23:31:05.863Z,4.28
2023-01-30T23:33:39.045Z,3.88
2023-01-30T23:36:08.148Z,3.35
2023-01-30T23:38:36.400Z,4.25
2023-01-30T23:41:08.782Z,3.53
2023-01-30T23:43:36.854Z,3.38
2023-01-30T23:46:12.742Z,4.00
2023-01-30T23:48:43.310Z,3.63
2023-01-30T23:51:11.017Z,3.28
2023-01-30T23:53:39.022Z,2.50
2023-01-30T23:56:07.289Z,3.08
2023-01-30T23:58:35.243Z,2.90
